Tri-State/Milton J Ferguson Field (HTS)

 

Airport Diagram
Current Weather/Forecast (VFR Conditions)
METAR KHTS 270251Z A3021 RMK AO2 SLPNO $
TAF KHTS 262347Z 2700/2724 33004KT P6SM OVC018 FM271600 00000KT 6SM -RA OVC012 FM272000 35003KT P6SM OVC022 AMD NOT SKED

Airport Information

All Charts
General
Chart Name View
AIRPORT DIAGRAM
AIRPORT DIAGRAM
TAKEOFF MINIMUMS
ALTERNATE MINIMUMS
RADAR MINIMUMS
TAKEOFF MINIMUMS
ALTERNATE MINIMUMS
RADAR MINIMUMS
HOT SPOT
HOT SPOT

Approaches
Chart Name Download
ILS OR LOC RWY 12
ILS OR LOC RWY 30
RNAV (GPS) RWY 12
RNAV (GPS) RWY 30
ILS OR LOC RWY 12
ILS OR LOC RWY 30
RNAV (GPS) RWY 12
RNAV (GPS) RWY 30


Airport Statistics
Departures Arrivals Local
All Collected Stats since June 2016: 84 81 2
2020 Stats: 40 39 0
October Stats: 3 1 0

Inbound Traffic (Arrivals) - 0

No inbound traffic.


Outbound Traffic (Departures) - 0

No outbound traffic.


Local Traffic (Pattern) - 0

No local traffic.